sensor_id;sensor_type;location;lat;lon;timestamp;P1;durP1;ratioP1;P2;durP2;ratioP2
25359;SDS011;13311;51.386;0.016;2023-04-25T00:03:35;17.08;;;4.93;;
25359;SDS011;13311;51.386;0.016;2023-04-25T00:08:36;25.58;;;6.05;;
25359;SDS011;13311;51.386;0.016;2023-04-25T00:13:37;20.00;;;4.70;;
25359;SDS011;13311;51.386;0.016;2023-04-25T00:18:37;20.77;;;5.40;;
25359;SDS011;13311;51.386;0.016;2023-04-25T00:23:38;14.82;;;4.82;;
25359;SDS011;13311;51.386;0.016;2023-04-25T00:28:39;20.02;;;4.88;;
25359;SDS011;13311;51.386;0.016;2023-04-25T00:33:40;18.52;;;5.15;;
25359;SDS011;13311;51.386;0.016;2023-04-25T00:38:41;23.10;;;4.85;;
25359;SDS011;13311;51.386;0.016;2023-04-25T00:43:42;16.75;;;4.20;;
25359;SDS011;13311;51.386;0.016;2023-04-25T00:48:44;16.73;;;5.35;;
25359;SDS011;13311;51.386;0.016;2023-04-25T00:53:45;24.00;;;5.55;;
25359;SDS011;13311;51.386;0.016;2023-04-25T00:58:48;18.33;;;4.28;;
25359;SDS011;13311;51.386;0.016;2023-04-25T01:03:53;19.17;;;4.78;;
25359;SDS011;13311;51.386;0.016;2023-04-25T01:08:54;17.63;;;4.35;;
25359;SDS011;13311;51.386;0.016;2023-04-25T01:13:55;14.60;;;3.58;;
25359;SDS011;13311;51.386;0.016;2023-04-25T01:18:55;14.30;;;4.07;;
25359;SDS011;13311;51.386;0.016;2023-04-25T01:23:57;20.35;;;3.70;;
25359;SDS011;13311;51.386;0.016;2023-04-25T01:28:58;16.58;;;3.90;;
25359;SDS011;13311;51.386;0.016;2023-04-25T01:33:59;15.77;;;4.15;;
25359;SDS011;13311;51.386;0.016;2023-04-25T01:39:00;18.42;;;3.65;;
25359;SDS011;13311;51.386;0.016;2023-04-25T01:44:02;20.67;;;4.95;;
25359;SDS011;13311;51.386;0.016;2023-04-25T01:49:03;17.92;;;3.80;;
25359;SDS011;13311;51.386;0.016;2023-04-25T01:54:04;15.82;;;3.65;;
25359;SDS011;13311;51.386;0.016;2023-04-25T01:59:06;15.30;;;3.75;;
25359;SDS011;13311;51.386;0.016;2023-04-25T02:04:06;11.07;;;3.50;;
25359;SDS011;13311;51.386;0.016;2023-04-25T02:09:07;12.85;;;3.45;;
25359;SDS011;13311;51.386;0.016;2023-04-25T02:14:08;13.30;;;4.10;;
25359;SDS011;13311;51.386;0.016;2023-04-25T02:19:09;22.67;;;4.10;;
25359;SDS011;13311;51.386;0.016;2023-04-25T02:24:10;14.48;;;3.17;;
25359;SDS011;13311;51.386;0.016;2023-04-25T02:29:11;13.00;;;3.55;;
25359;SDS011;13311;51.386;0.016;2023-04-25T02:34:12;15.30;;;3.65;;
25359;SDS011;13311;51.386;0.016;2023-04-25T02:39:13;13.63;;;3.53;;
25359;SDS011;13311;51.386;0.016;2023-04-25T02:44:13;14.40;;;4.47;;
25359;SDS011;13311;51.386;0.016;2023-04-25T02:49:14;14.05;;;3.85;;
25359;SDS011;13311;51.386;0.016;2023-04-25T02:54:15;11.05;;;3.95;;
25359;SDS011;13311;51.386;0.016;2023-04-25T02:59:15;18.05;;;4.10;;
25359;SDS011;13311;51.386;0.016;2023-04-25T03:04:16;13.13;;;3.55;;
25359;SDS011;13311;51.386;0.016;2023-04-25T03:09:19;13.80;;;3.53;;
25359;SDS011;13311;51.386;0.016;2023-04-25T03:14:20;17.75;;;4.53;;
25359;SDS011;13311;51.386;0.016;2023-04-25T03:19:20;16.80;;;4.22;;
25359;SDS011;13311;51.386;0.016;2023-04-25T03:24:21;12.43;;;3.60;;
25359;SDS011;13311;51.386;0.016;2023-04-25T03:29:22;17.63;;;4.88;;
25359;SDS011;13311;51.386;0.016;2023-04-25T03:34:25;10.70;;;4.38;;
25359;SDS011;13311;51.386;0.016;2023-04-25T03:39:26;13.18;;;4.28;;
25359;SDS011;13311;51.386;0.016;2023-04-25T03:44:27;10.48;;;3.63;;
25359;SDS011;13311;51.386;0.016;2023-04-25T03:49:27;17.98;;;3.60;;
25359;SDS011;13311;51.386;0.016;2023-04-25T03:54:28;14.57;;;3.80;;
25359;SDS011;13311;51.386;0.016;2023-04-25T03:59:29;13.88;;;3.83;;
25359;SDS011;13311;51.386;0.016;2023-04-25T04:04:30;13.45;;;3.33;;
25359;SDS011;13311;51.386;0.016;2023-04-25T04:09:31;11.65;;;4.05;;
25359;SDS011;13311;51.386;0.016;2023-04-25T04:14:31;13.82;;;4.22;;
25359;SDS011;13311;51.386;0.016;2023-04-25T04:19:32;8.95;;;3.30;;
25359;SDS011;13311;51.386;0.016;2023-04-25T04:24:33;10.65;;;3.10;;
25359;SDS011;13311;51.386;0.016;2023-04-25T04:29:33;17.42;;;3.83;;
25359;SDS011;13311;51.386;0.016;2023-04-25T04:34:35;11.02;;;3.22;;
25359;SDS011;13311;51.386;0.016;2023-04-25T04:39:36;16.65;;;3.92;;
25359;SDS011;13311;51.386;0.016;2023-04-25T04:44:37;15.93;;;3.85;;
25359;SDS011;13311;51.386;0.016;2023-04-25T04:49:38;12.27;;;3.72;;
25359;SDS011;13311;51.386;0.016;2023-04-25T04:54:39;16.67;;;5.03;;
25359;SDS011;13311;51.386;0.016;2023-04-25T04:59:40;17.08;;;4.18;;
25359;SDS011;13311;51.386;0.016;2023-04-25T05:04:41;10.38;;;3.45;;
25359;SDS011;13311;51.386;0.016;2023-04-25T05:09:42;16.85;;;4.28;;
25359;SDS011;13311;51.386;0.016;2023-04-25T05:14:42;12.32;;;4.20;;
25359;SDS011;13311;51.386;0.016;2023-04-25T05:19:43;21.80;;;4.55;;
25359;SDS011;13311;51.386;0.016;2023-04-25T05:24:44;10.25;;;4.25;;
25359;SDS011;13311;51.386;0.016;2023-04-25T05:29:44;13.32;;;4.30;;
25359;SDS011;13311;51.386;0.016;2023-04-25T05:34:45;13.48;;;4.25;;
25359;SDS011;13311;51.386;0.016;2023-04-25T05:39:46;10.15;;;4.45;;
25359;SDS011;13311;51.386;0.016;2023-04-25T05:44:47;12.13;;;4.95;;
25359;SDS011;13311;51.386;0.016;2023-04-25T05:49:47;10.20;;;4.85;;
25359;SDS011;13311;51.386;0.016;2023-04-25T05:54:48;11.93;;;4.10;;
25359;SDS011;13311;51.386;0.016;2023-04-25T05:59:49;15.07;;;3.92;;
25359;SDS011;13311;51.386;0.016;2023-04-25T06:04:50;11.88;;;4.25;;
25359;SDS011;13311;51.386;0.016;2023-04-25T06:09:51;7.20;;;2.65;;
25359;SDS011;13311;51.386;0.016;2023-04-25T06:14:51;14.30;;;3.33;;
25359;SDS011;13311;51.386;0.016;2023-04-25T06:19:52;10.63;;;2.70;;
25359;SDS011;13311;51.386;0.016;2023-04-25T06:24:53;8.00;;;3.00;;
25359;SDS011;13311;51.386;0.016;2023-04-25T06:29:57;10.30;;;3.25;;
25359;SDS011;13311;51.386;0.016;2023-04-25T06:34:57;8.75;;;3.08;;
25359;SDS011;13311;51.386;0.016;2023-04-25T06:39:58;10.80;;;3.25;;
25359;SDS011;13311;51.386;0.016;2023-04-25T06:44:59;11.35;;;3.50;;
25359;SDS011;13311;51.386;0.016;2023-04-25T06:50:00;9.98;;;3.17;;
25359;SDS011;13311;51.386;0.016;2023-04-25T06:55:00;11.70;;;2.97;;
25359;SDS011;13311;51.386;0.016;2023-04-25T07:00:01;10.35;;;2.90;;
25359;SDS011;13311;51.386;0.016;2023-04-25T07:05:05;7.80;;;2.88;;
25359;SDS011;13311;51.386;0.016;2023-04-25T07:10:06;15.05;;;3.67;;
25359;SDS011;13311;51.386;0.016;2023-04-25T07:15:07;9.45;;;2.90;;
25359;SDS011;13311;51.386;0.016;2023-04-25T07:20:10;9.98;;;3.15;;
25359;SDS011;13311;51.386;0.016;2023-04-25T07:25:11;8.70;;;2.78;;
25359;SDS011;13311;51.386;0.016;2023-04-25T07:30:12;8.93;;;2.95;;
25359;SDS011;13311;51.386;0.016;2023-04-25T07:35:13;9.68;;;2.97;;
25359;SDS011;13311;51.386;0.016;2023-04-25T07:40:14;8.07;;;2.30;;
25359;SDS011;13311;51.386;0.016;2023-04-25T07:45:17;8.55;;;3.08;;
25359;SDS011;13311;51.386;0.016;2023-04-25T07:50:18;11.50;;;3.03;;
25359;SDS011;13311;51.386;0.016;2023-04-25T07:55:19;8.23;;;2.65;;
25359;SDS011;13311;51.386;0.016;2023-04-25T08:00:20;8.48;;;3.00;;
25359;SDS011;13311;51.386;0.016;2023-04-25T08:05:21;12.30;;;2.80;;
25359;SDS011;13311;51.386;0.016;2023-04-25T08:10:22;7.28;;;2.42;;
25359;SDS011;13311;51.386;0.016;2023-04-25T08:15:23;14.25;;;3.20;;
25359;SDS011;13311;51.386;0.016;2023-04-25T08:20:23;7.88;;;2.78;;
25359;SDS011;13311;51.386;0.016;2023-04-25T08:25:25;12.85;;;2.90;;
25359;SDS011;13311;51.386;0.016;2023-04-25T08:30:25;7.68;;;2.60;;
25359;SDS011;13311;51.386;0.016;2023-04-25T08:35:27;8.20;;;2.65;;
25359;SDS011;13311;51.386;0.016;2023-04-25T08:40:27;9.15;;;2.20;;
25359;SDS011;13311;51.386;0.016;2023-04-25T08:45:31;13.57;;;2.83;;
25359;SDS011;13311;51.386;0.016;2023-04-25T08:50:32;5.35;;;1.90;;
25359;SDS011;13311;51.386;0.016;2023-04-25T08:55:36;7.55;;;2.10;;
25359;SDS011;13311;51.386;0.016;2023-04-25T09:00:39;6.60;;;2.25;;
25359;SDS011;13311;51.386;0.016;2023-04-25T09:05:40;8.05;;;2.65;;
25359;SDS011;13311;51.386;0.016;2023-04-25T09:10:41;7.95;;;3.45;;
25359;SDS011;13311;51.386;0.016;2023-04-25T09:15:49;7.57;;;3.22;;
25359;SDS011;13311;51.386;0.016;2023-04-25T09:21:10;8.48;;;1.83;;
25359;SDS011;13311;51.386;0.016;2023-04-25T09:26:15;17.40;;;3.42;;
25359;SDS011;13311;51.386;0.016;2023-04-25T09:31:24;6.47;;;2.22;;
25359;SDS011;13311;51.386;0.016;2023-04-25T09:36:26;8.00;;;2.20;;
25359;SDS011;13311;51.386;0.016;2023-04-25T09:41:27;5.65;;;1.95;;
25359;SDS011;13311;51.386;0.016;2023-04-25T09:46:33;3.92;;;1.70;;
25359;SDS011;13311;51.386;0.016;2023-04-25T09:51:36;11.55;;;3.53;;
25359;SDS011;13311;51.386;0.016;2023-04-25T09:56:37;4.80;;;1.70;;
25359;SDS011;13311;51.386;0.016;2023-04-25T10:01:39;6.70;;;1.75;;
25359;SDS011;13311;51.386;0.016;2023-04-25T10:06:41;5.72;;;1.88;;
25359;SDS011;13311;51.386;0.016;2023-04-25T10:11:44;5.35;;;1.67;;
25359;SDS011;13311;51.386;0.016;2023-04-25T10:16:48;7.45;;;2.13;;
25359;SDS011;13311;51.386;0.016;2023-04-25T10:27:09;6.25;;;2.33;;
25359;SDS011;13311;51.386;0.016;2023-04-25T10:32:10;7.00;;;2.40;;
25359;SDS011;13311;51.386;0.016;2023-04-25T10:37:11;6.88;;;2.42;;
25359;SDS011;13311;51.386;0.016;2023-04-25T10:42:12;4.80;;;1.75;;
25359;SDS011;13311;51.386;0.016;2023-04-25T10:47:13;4.95;;;1.65;;
25359;SDS011;13311;51.386;0.016;2023-04-25T10:52:35;4.93;;;1.75;;
25359;SDS011;13311;51.386;0.016;2023-04-25T10:57:40;8.30;;;1.60;;
25359;SDS011;13311;51.386;0.016;2023-04-25T11:02:57;7.88;;;1.67;;
25359;SDS011;13311;51.386;0.016;2023-04-25T11:07:59;3.63;;;1.60;;
25359;SDS011;13311;51.386;0.016;2023-04-25T11:13:01;5.13;;;1.60;;
25359;SDS011;13311;51.386;0.016;2023-04-25T11:18:01;4.13;;;1.40;;
25359;SDS011;13311;51.386;0.016;2023-04-25T11:23:03;5.22;;;1.58;;
25359;SDS011;13311;51.386;0.016;2023-04-25T11:28:05;6.28;;;1.65;;
25359;SDS011;13311;51.386;0.016;2023-04-25T11:33:05;4.07;;;1.67;;
25359;SDS011;13311;51.386;0.016;2023-04-25T11:38:06;6.88;;;2.15;;
25359;SDS011;13311;51.386;0.016;2023-04-25T11:43:07;5.07;;;1.90;;
25359;SDS011;13311;51.386;0.016;2023-04-25T11:48:09;9.65;;;2.15;;
25359;SDS011;13311;51.386;0.016;2023-04-25T11:53:10;3.47;;;1.98;;
25359;SDS011;13311;51.386;0.016;2023-04-25T11:58:11;6.07;;;2.63;;
25359;SDS011;13311;51.386;0.016;2023-04-25T12:03:13;5.18;;;2.22;;
25359;SDS011;13311;51.386;0.016;2023-04-25T12:08:15;12.88;;;2.17;;
25359;SDS011;13311;51.386;0.016;2023-04-25T12:13:19;11.18;;;2.63;;
25359;SDS011;13311;51.386;0.016;2023-04-25T12:18:25;6.93;;;2.25;;
25359;SDS011;13311;51.386;0.016;2023-04-25T12:23:28;4.82;;;2.42;;
25359;SDS011;13311;51.386;0.016;2023-04-25T12:28:31;4.28;;;2.08;;
25359;SDS011;13311;51.386;0.016;2023-04-25T12:33:33;3.65;;;1.40;;
25359;SDS011;13311;51.386;0.016;2023-04-25T12:38:39;5.93;;;1.75;;
25359;SDS011;13311;51.386;0.016;2023-04-25T12:43:42;4.57;;;1.50;;
25359;SDS011;13311;51.386;0.016;2023-04-25T12:48:42;4.50;;;1.77;;
25359;SDS011;13311;51.386;0.016;2023-04-25T12:53:43;5.72;;;2.05;;
25359;SDS011;13311;51.386;0.016;2023-04-25T12:58:44;6.32;;;2.05;;
25359;SDS011;13311;51.386;0.016;2023-04-25T13:03:45;5.13;;;2.20;;
25359;SDS011;13311;51.386;0.016;2023-04-25T13:08:47;4.18;;;1.95;;
25359;SDS011;13311;51.386;0.016;2023-04-25T13:13:48;4.13;;;1.80;;
25359;SDS011;13311;51.386;0.016;2023-04-25T13:18:49;5.57;;;2.05;;
25359;SDS011;13311;51.386;0.016;2023-04-25T13:23:49;5.75;;;1.77;;
25359;SDS011;13311;51.386;0.016;2023-04-25T13:28:50;3.95;;;2.00;;
25359;SDS011;13311;51.386;0.016;2023-04-25T13:33:51;3.55;;;1.67;;
25359;SDS011;13311;51.386;0.016;2023-04-25T13:38:51;9.75;;;2.10;;
25359;SDS011;13311;51.386;0.016;2023-04-25T13:43:52;7.03;;;2.63;;
25359;SDS011;13311;51.386;0.016;2023-04-25T13:48:53;7.38;;;1.90;;
25359;SDS011;13311;51.386;0.016;2023-04-25T13:53:54;8.00;;;2.13;;
25359;SDS011;13311;51.386;0.016;2023-04-25T13:58:55;7.85;;;2.50;;
25359;SDS011;13311;51.386;0.016;2023-04-25T14:03:57;5.10;;;1.90;;
25359;SDS011;13311;51.386;0.016;2023-04-25T14:08:57;5.05;;;2.05;;
25359;SDS011;13311;51.386;0.016;2023-04-25T14:14:00;4.22;;;1.98;;
25359;SDS011;13311;51.386;0.016;2023-04-25T14:19:01;7.35;;;2.33;;
25359;SDS011;13311;51.386;0.016;2023-04-25T14:24:02;4.43;;;1.90;;
25359;SDS011;13311;51.386;0.016;2023-04-25T14:29:03;9.32;;;2.85;;
25359;SDS011;13311;51.386;0.016;2023-04-25T14:34:05;5.32;;;2.00;;
25359;SDS011;13311;51.386;0.016;2023-04-25T14:39:07;9.15;;;2.30;;
25359;SDS011;13311;51.386;0.016;2023-04-25T14:44:08;5.25;;;2.15;;
25359;SDS011;13311;51.386;0.016;2023-04-25T14:49:09;8.98;;;2.70;;
25359;SDS011;13311;51.386;0.016;2023-04-25T14:54:10;6.75;;;2.42;;
25359;SDS011;13311;51.386;0.016;2023-04-25T14:59:11;4.80;;;2.25;;
25359;SDS011;13311;51.386;0.016;2023-04-25T15:04:12;5.60;;;2.60;;
25359;SDS011;13311;51.386;0.016;2023-04-25T15:09:14;11.65;;;2.58;;
25359;SDS011;13311;51.386;0.016;2023-04-25T15:14:18;8.68;;;2.33;;
25359;SDS011;13311;51.386;0.016;2023-04-25T15:19:20;8.68;;;2.60;;
25359;SDS011;13311;51.386;0.016;2023-04-25T15:24:21;9.98;;;2.88;;
25359;SDS011;13311;51.386;0.016;2023-04-25T15:29:22;6.05;;;2.17;;
25359;SDS011;13311;51.386;0.016;2023-04-25T15:34:22;4.03;;;2.33;;
25359;SDS011;13311;51.386;0.016;2023-04-25T15:39:23;6.97;;;2.72;;
25359;SDS011;13311;51.386;0.016;2023-04-25T15:44:24;6.30;;;2.60;;
25359;SDS011;13311;51.386;0.016;2023-04-25T15:49:25;7.75;;;2.10;;
25359;SDS011;13311;51.386;0.016;2023-04-25T15:54:27;3.15;;;1.80;;
25359;SDS011;13311;51.386;0.016;2023-04-25T15:59:28;7.80;;;3.08;;
25359;SDS011;13311;51.386;0.016;2023-04-25T16:04:29;4.85;;;2.30;;
25359;SDS011;13311;51.386;0.016;2023-04-25T16:09:37;4.68;;;2.22;;
25359;SDS011;13311;51.386;0.016;2023-04-25T16:14:38;5.93;;;2.40;;
25359;SDS011;13311;51.386;0.016;2023-04-25T16:19:38;5.82;;;2.33;;
25359;SDS011;13311;51.386;0.016;2023-04-25T16:24:39;6.82;;;2.28;;
25359;SDS011;13311;51.386;0.016;2023-04-25T16:29:40;6.05;;;2.25;;
25359;SDS011;13311;51.386;0.016;2023-04-25T16:34:41;5.90;;;2.45;;
25359;SDS011;13311;51.386;0.016;2023-04-25T16:39:42;8.88;;;2.45;;
25359;SDS011;13311;51.386;0.016;2023-04-25T16:44:42;6.53;;;2.20;;
25359;SDS011;13311;51.386;0.016;2023-04-25T16:49:43;8.77;;;2.58;;
25359;SDS011;13311;51.386;0.016;2023-04-25T16:54:44;8.15;;;2.50;;
25359;SDS011;13311;51.386;0.016;2023-04-25T16:59:45;8.27;;;2.30;;
25359;SDS011;13311;51.386;0.016;2023-04-25T17:04:46;5.38;;;2.10;;
25359;SDS011;13311;51.386;0.016;2023-04-25T17:09:46;6.50;;;2.60;;
25359;SDS011;13311;51.386;0.016;2023-04-25T17:14:48;6.30;;;2.20;;
25359;SDS011;13311;51.386;0.016;2023-04-25T17:19:49;8.13;;;2.28;;
25359;SDS011;13311;51.386;0.016;2023-04-25T17:24:49;5.68;;;2.13;;
25359;SDS011;13311;51.386;0.016;2023-04-25T17:29:50;7.30;;;2.20;;
25359;SDS011;13311;51.386;0.016;2023-04-25T17:34:51;5.78;;;2.55;;
25359;SDS011;13311;51.386;0.016;2023-04-25T17:39:51;7.05;;;2.33;;
25359;SDS011;13311;51.386;0.016;2023-04-25T17:44:53;5.03;;;2.20;;
25359;SDS011;13311;51.386;0.016;2023-04-25T17:49:54;8.27;;;3.30;;
25359;SDS011;13311;51.386;0.016;2023-04-25T17:54:55;4.00;;;2.13;;
25359;SDS011;13311;51.386;0.016;2023-04-25T17:59:56;8.90;;;2.45;;
25359;SDS011;13311;51.386;0.016;2023-04-25T18:04:56;9.80;;;2.58;;
25359;SDS011;13311;51.386;0.016;2023-04-25T18:09:57;6.35;;;2.38;;
25359;SDS011;13311;51.386;0.016;2023-04-25T18:14:58;5.32;;;2.13;;
25359;SDS011;13311;51.386;0.016;2023-04-25T18:19:59;8.02;;;2.20;;
25359;SDS011;13311;51.386;0.016;2023-04-25T18:25:00;7.00;;;2.00;;
25359;SDS011;13311;51.386;0.016;2023-04-25T18:30:04;5.70;;;2.20;;
25359;SDS011;13311;51.386;0.016;2023-04-25T18:35:07;9.95;;;2.75;;
25359;SDS011;13311;51.386;0.016;2023-04-25T18:40:09;5.65;;;2.20;;
25359;SDS011;13311;51.386;0.016;2023-04-25T18:45:12;10.82;;;3.17;;
25359;SDS011;13311;51.386;0.016;2023-04-25T18:50:13;10.15;;;2.50;;
25359;SDS011;13311;51.386;0.016;2023-04-25T18:55:14;8.23;;;2.08;;
25359;SDS011;13311;51.386;0.016;2023-04-25T19:00:15;7.00;;;2.47;;
25359;SDS011;13311;51.386;0.016;2023-04-25T19:05:16;6.63;;;2.40;;
25359;SDS011;13311;51.386;0.016;2023-04-25T19:10:17;5.43;;;1.98;;
25359;SDS011;13311;51.386;0.016;2023-04-25T19:15:18;9.30;;;2.80;;
25359;SDS011;13311;51.386;0.016;2023-04-25T19:20:18;10.77;;;2.75;;
25359;SDS011;13311;51.386;0.016;2023-04-25T19:25:19;8.30;;;3.33;;
25359;SDS011;13311;51.386;0.016;2023-04-25T19:30:21;6.80;;;2.75;;
25359;SDS011;13311;51.386;0.016;2023-04-25T19:35:22;8.38;;;3.58;;
25359;SDS011;13311;51.386;0.016;2023-04-25T19:40:24;12.35;;;3.05;;
25359;SDS011;13311;51.386;0.016;2023-04-25T19:45:25;6.28;;;2.70;;
25359;SDS011;13311;51.386;0.016;2023-04-25T19:50:27;6.10;;;2.28;;
25359;SDS011;13311;51.386;0.016;2023-04-25T19:55:27;9.80;;;2.72;;
25359;SDS011;13311;51.386;0.016;2023-04-25T20:00:28;12.60;;;3.83;;
25359;SDS011;13311;51.386;0.016;2023-04-25T20:05:29;6.72;;;2.58;;
25359;SDS011;13311;51.386;0.016;2023-04-25T20:10:31;9.68;;;2.47;;
25359;SDS011;13311;51.386;0.016;2023-04-25T20:15:31;12.75;;;4.15;;
25359;SDS011;13311;51.386;0.016;2023-04-25T20:20:32;10.70;;;4.15;;
25359;SDS011;13311;51.386;0.016;2023-04-25T20:25:33;11.50;;;3.65;;
25359;SDS011;13311;51.386;0.016;2023-04-25T20:30:34;12.18;;;3.05;;
25359;SDS011;13311;51.386;0.016;2023-04-25T20:35:35;5.20;;;2.50;;
25359;SDS011;13311;51.386;0.016;2023-04-25T20:40:36;7.90;;;2.65;;
25359;SDS011;13311;51.386;0.016;2023-04-25T20:45:37;11.57;;;2.78;;
25359;SDS011;13311;51.386;0.016;2023-04-25T20:50:38;9.73;;;2.90;;
25359;SDS011;13311;51.386;0.016;2023-04-25T20:55:39;6.40;;;2.20;;
25359;SDS011;13311;51.386;0.016;2023-04-25T21:00:41;10.50;;;2.53;;
25359;SDS011;13311;51.386;0.016;2023-04-25T21:05:42;14.77;;;3.38;;
25359;SDS011;13311;51.386;0.016;2023-04-25T21:10:43;10.27;;;3.15;;
25359;SDS011;13311;51.386;0.016;2023-04-25T21:15:44;10.65;;;2.55;;
25359;SDS011;13311;51.386;0.016;2023-04-25T21:20:44;7.28;;;2.72;;
25359;SDS011;13311;51.386;0.016;2023-04-25T21:25:45;9.45;;;3.60;;
25359;SDS011;13311;51.386;0.016;2023-04-25T21:30:47;11.15;;;2.47;;
25359;SDS011;13311;51.386;0.016;2023-04-25T21:35:48;9.85;;;2.50;;
25359;SDS011;13311;51.386;0.016;2023-04-25T21:40:49;8.00;;;2.90;;
25359;SDS011;13311;51.386;0.016;2023-04-25T21:45:50;7.72;;;3.15;;
25359;SDS011;13311;51.386;0.016;2023-04-25T21:50:51;6.05;;;2.38;;
25359;SDS011;13311;51.386;0.016;2023-04-25T21:55:52;8.30;;;2.67;;
25359;SDS011;13311;51.386;0.016;2023-04-25T22:00:53;10.25;;;3.42;;
25359;SDS011;13311;51.386;0.016;2023-04-25T22:05:54;12.95;;;3.22;;
25359;SDS011;13311;51.386;0.016;2023-04-25T22:10:55;7.15;;;3.22;;
25359;SDS011;13311;51.386;0.016;2023-04-25T22:15:56;5.05;;;2.65;;
25359;SDS011;13311;51.386;0.016;2023-04-25T22:20:57;7.28;;;3.72;;
25359;SDS011;13311;51.386;0.016;2023-04-25T22:25:58;7.68;;;3.00;;
25359;SDS011;13311;51.386;0.016;2023-04-25T22:30:59;10.60;;;3.45;;
25359;SDS011;13311;51.386;0.016;2023-04-25T22:36:01;7.88;;;3.03;;
25359;SDS011;13311;51.386;0.016;2023-04-25T22:41:02;9.20;;;3.20;;
25359;SDS011;13311;51.386;0.016;2023-04-25T22:46:03;7.50;;;3.20;;
25359;SDS011;13311;51.386;0.016;2023-04-25T22:51:05;10.70;;;3.42;;
25359;SDS011;13311;51.386;0.016;2023-04-25T22:56:07;10.68;;;2.90;;
25359;SDS011;13311;51.386;0.016;2023-04-25T23:01:09;6.90;;;3.03;;
25359;SDS011;13311;51.386;0.016;2023-04-25T23:06:10;10.05;;;2.97;;
25359;SDS011;13311;51.386;0.016;2023-04-25T23:11:12;12.45;;;4.28;;
25359;SDS011;13311;51.386;0.016;2023-04-25T23:16:13;11.20;;;3.28;;
25359;SDS011;13311;51.386;0.016;2023-04-25T23:21:14;7.90;;;2.85;;
25359;SDS011;13311;51.386;0.016;2023-04-25T23:26:14;6.25;;;2.25;;
25359;SDS011;13311;51.386;0.016;2023-04-25T23:31:15;6.20;;;3.05;;
25359;SDS011;13311;51.386;0.016;2023-04-25T23:36:16;8.63;;;2.53;;
25359;SDS011;13311;51.386;0.016;2023-04-25T23:41:21;9.27;;;2.70;;
25359;SDS011;13311;51.386;0.016;2023-04-25T23:46:22;11.15;;;2.65;;
25359;SDS011;13311;51.386;0.016;2023-04-25T23:51:22;8.15;;;3.10;;
25359;SDS011;13311;51.386;0.016;2023-04-25T23:56:24;8.27;;;2.83;;
